Time;durP1;ratioP1;P1;durP2;ratioP2;P2;SDS_P1;SDS_P2;PMS_P1;PMS_P2;Temp;Humidity;BMP_temperature;BMP_pressure;BME280_temperature;BME280_humidity;BME280_pressure;Samples;Min_cycle;Max_cycle;Signal;HPM_P1;HPM_P2
2023/04/07 00:01:29;;;;;;;150.77;34.30;;;;;;;9.08;100.00;101086.34;4909175;29;20099;-77
2023/04/07 00:03:54;;;;;;;178.80;35.00;;;;;;;9.14;100.00;101094.13;4921380;29;20459;-78
2023/04/07 00:06:20;;;;;;;147.90;34.80;;;;;;;9.08;100.00;101097.25;4919484;29;20082;-77
2023/04/07 00:08:45;;;;;;;150.35;34.67;;;;;;;9.12;100.00;101093.34;4938934;29;20055;-77
2023/04/07 00:11:13;;;;;;;157.68;33.88;;;;;;;9.04;100.00;101096.59;4941260;29;20118;-77
2023/04/07 00:13:39;;;;;;;146.60;34.55;;;;;;;9.03;100.00;101089.38;4939755;29;20143;-77
2023/04/07 00:16:05;;;;;;;141.25;33.85;;;;;;;9.13;100.00;101097.81;4927738;29;20126;-77
2023/04/07 00:18:30;;;;;;;132.95;35.10;;;;;;;9.04;100.00;101093.88;4932619;29;20118;-78
2023/04/07 00:20:56;;;;;;;148.65;34.28;;;;;;;8.99;100.00;101090.59;4910894;29;20043;-78
2023/04/07 00:23:21;;;;;;;117.60;33.13;;;;;;;8.91;100.00;101093.84;4938619;29;20411;-77
2023/04/07 00:25:47;;;;;;;133.82;33.83;;;;;;;8.95;100.00;101091.75;4931562;29;20146;-78
2023/04/07 00:28:13;;;;;;;153.40;35.92;;;;;;;9.06;100.00;101093.78;4931090;29;20574;-78
2023/04/07 00:30:38;;;;;;;138.00;34.13;;;;;;;8.96;100.00;101091.66;4941570;29;20111;-78
2023/04/07 00:33:04;;;;;;;125.25;34.85;;;;;;;9.06;100.00;101101.97;4937142;29;20043;-78
2023/04/07 00:35:29;;;;;;;113.65;32.55;;;;;;;8.90;100.00;101092.06;4925710;29;20031;-77
2023/04/07 00:37:55;;;;;;;119.40;32.67;;;;;;;8.91;100.00;101095.72;4904613;29;20036;-77
2023/04/07 00:40:21;;;;;;;106.72;29.80;;;;;;;8.97;100.00;101095.28;4928982;29;20031;-78
2023/04/07 00:42:46;;;;;;;110.85;32.83;;;;;;;8.76;100.00;101090.31;4939439;29;20049;-77
2023/04/07 00:45:12;;;;;;;104.82;30.23;;;;;;;8.71;100.00;101088.88;4918546;29;20106;-78
2023/04/07 00:47:38;;;;;;;111.65;31.52;;;;;;;8.71;100.00;101089.75;4899614;29;20035;-78
2023/04/07 00:50:04;;;;;;;107.82;30.60;;;;;;;8.70;100.00;101093.44;4941974;29;20043;-78
2023/04/07 00:52:31;;;;;;;103.82;30.83;;;;;;;8.74;100.00;101095.00;4927645;29;20050;-78
2023/04/07 00:54:58;;;;;;;98.78;30.63;;;;;;;8.75;100.00;101088.53;4937932;29;20549;-78
2023/04/07 00:57:24;;;;;;;102.43;30.15;;;;;;;8.75;100.00;101101.31;4906792;29;20399;-78
2023/04/07 00:59:51;;;;;;;102.78;30.13;;;;;;;8.87;100.00;101100.50;4923702;29;20067;-78
2023/04/07 01:02:21;;;;;;;101.72;29.50;;;;;;;8.80;100.00;101099.16;4920210;29;20063;-77
2023/04/07 01:05:10;;;;;;;95.50;30.98;;;;;;;8.77;100.00;101097.53;4913399;29;20163;-78
2023/04/07 01:07:41;;;;;;;83.13;27.27;;;;;;;8.72;100.00;101094.19;4946609;29;20387;-78
2023/04/07 01:10:12;;;;;;;81.63;25.58;;;;;;;8.65;100.00;101101.06;4956467;29;20031;-78
2023/04/07 01:12:55;;;;;;;78.05;25.83;;;;;;;8.62;100.00;101107.63;4919846;29;20036;-78
2023/04/07 01:15:23;;;;;;;76.78;25.88;;;;;;;8.70;100.00;101106.22;4942750;29;20391;-78
2023/04/07 01:17:54;;;;;;;66.40;23.25;;;;;;;8.65;100.00;101107.38;4940310;29;20119;-78
2023/04/07 01:20:22;;;;;;;65.28;22.08;;;;;;;8.56;100.00;101108.03;4937925;29;20036;-78
2023/04/07 01:22:54;;;;;;;56.60;21.17;;;;;;;8.55;100.00;101111.72;4940467;29;20047;-78
2023/04/07 01:25:48;;;;;;;54.08;20.05;;;;;;;8.59;100.00;101105.09;4919383;29;20046;-77
2023/04/07 01:28:33;;;;;;;;;;;;;;;8.59;100.00;101105.09;4940630;29;20118;-78
2023/04/07 01:31:01;;;;;;;44.40;17.90;;;;;;;8.46;100.00;101098.69;4878260;29;19922;-78
2023/04/07 01:33:30;;;;;;;51.20;18.80;;;;;;;8.43;100.00;101107.97;4941491;29;20036;-78
2023/04/07 01:35:58;;;;;;;45.75;18.75;;;;;;;8.40;100.00;101110.00;4938508;29;20028;-78
2023/04/07 01:38:25;;;;;;;44.10;18.08;;;;;;;8.42;100.00;101114.34;4920455;29;20082;-78
2023/04/07 01:40:52;;;;;;;42.63;17.63;;;;;;;8.35;100.00;101113.03;4936509;29;20072;-78
2023/04/07 01:43:18;;;;;;;43.35;19.95;;;;;;;8.40;100.00;101112.72;4920943;29;20039;-78
2023/04/07 01:45:44;;;;;;;42.47;18.10;;;;;;;8.31;100.00;101114.19;4937223;29;20385;-78
2023/04/07 01:48:11;;;;;;;48.15;19.17;;;;;;;8.44;100.00;101120.63;4938127;29;20035;-78
2023/04/07 01:50:39;;;;;;;58.30;21.98;;;;;;;8.45;100.00;101121.50;4890649;29;20032;-78
2023/04/07 01:53:06;;;;;;;57.05;21.70;;;;;;;8.52;100.00;101125.56;4922830;29;20039;-78
2023/04/07 01:55:31;;;;;;;63.90;22.02;;;;;;;8.47;100.00;101116.81;4946662;29;20031;-78
2023/04/07 01:57:57;;;;;;;62.72;23.40;;;;;;;8.43;100.00;101127.06;4913216;29;20064;-78
2023/04/07 02:00:23;;;;;;;57.95;22.80;;;;;;;8.51;100.00;101115.66;4961805;29;20047;-78
2023/04/07 02:02:53;;;;;;;64.95;25.00;;;;;;;8.55;100.00;101119.91;4950889;28;20511;-78
2023/04/07 02:05:21;;;;;;;56.20;21.45;;;;;;;8.42;100.00;101116.22;4928695;29;20027;-78
2023/04/07 02:07:56;;;;;;;51.60;21.65;;;;;;;8.38;100.00;101114.66;4925882;29;20040;-78
2023/04/07 02:10:25;;;;;;;55.40;20.98;;;;;;;8.40;100.00;101127.22;4954408;29;20430;-78
2023/04/07 02:12:52;;;;;;;43.25;19.70;;;;;;;8.43;100.00;101115.28;4948074;29;20035;-78
2023/04/07 02:15:18;;;;;;;52.40;18.92;;;;;;;8.38;100.00;101114.66;4932095;29;20032;-78
2023/04/07 02:17:48;;;;;;;47.83;18.58;;;;;;;8.49;100.00;101120.31;4952377;29;20487;-78
2023/04/07 02:20:15;;;;;;;53.67;19.08;;;;;;;8.40;100.00;101129.09;4933714;29;20040;-79
2023/04/07 02:22:41;;;;;;;48.08;18.92;;;;;;;8.38;100.00;101126.47;4921110;29;20039;-80
2023/04/07 02:25:20;;;;;;;61.03;18.95;;;;;;;8.36;100.00;101128.41;4911516;29;20031;-79
2023/04/07 02:27:46;;;;;;;53.15;19.85;;;;;;;8.34;100.00;101130.34;4921519;29;20077;-79
2023/04/07 02:30:12;;;;;;;40.95;18.35;;;;;;;8.37;100.00;101141.06;4955412;29;20127;-79
2023/04/07 02:32:37;;;;;;;56.05;19.33;;;;;;;8.27;100.00;101132.59;4951874;29;20065;-79
2023/04/07 02:35:03;;;;;;;51.90;18.92;;;;;;;8.35;100.00;101134.84;4953197;29;20040;-78
2023/04/07 02:37:28;;;;;;;51.67;17.55;;;;;;;8.26;100.00;101132.69;4921001;29;20039;-79
2023/04/07 02:39:54;;;;;;;47.80;18.00;;;;;;;8.27;100.00;101135.34;4956435;29;20043;-79
2023/04/07 02:42:19;;;;;;;43.22;17.80;;;;;;;8.27;100.00;101139.94;4944684;29;20047;-79
2023/04/07 02:44:45;;;;;;;42.50;18.27;;;;;;;8.30;100.00;101137.00;4944901;29;20047;-79
2023/04/07 02:47:10;;;;;;;52.05;19.05;;;;;;;8.31;100.00;101143.31;4936532;29;20059;-78
2023/04/07 02:49:36;;;;;;;57.80;19.05;;;;;;;8.30;100.00;101145.19;4923024;29;20046;-79
2023/04/07 02:52:01;;;;;;;46.55;18.02;;;;;;;8.21;100.00;101137.59;4942538;29;20040;-79
2023/04/07 02:54:27;;;;;;;51.90;18.00;;;;;;;8.18;100.00;101140.50;4951027;28;20090;-78
2023/04/07 02:56:52;;;;;;;41.75;17.05;;;;;;;8.18;100.00;101141.41;4904157;29;20492;-79
2023/04/07 02:59:17;;;;;;;37.50;14.40;;;;;;;8.20;100.00;101144.00;4937251;29;20046;-78
2023/04/07 03:01:43;;;;;;;31.13;11.63;;;;;;;8.09;100.00;101147.44;4903275;29;20139;-79
2023/04/07 03:04:08;;;;;;;26.75;11.35;;;;;;;8.13;100.00;101140.81;4916210;29;20138;-78
2023/04/07 03:06:34;;;;;;;26.75;10.43;;;;;;;8.11;100.00;101140.03;4935472;29;20060;-80
2023/04/07 03:08:59;;;;;;;16.23;8.25;;;;;;;8.06;100.00;101134.88;4873577;29;20044;-79
2023/04/07 03:11:25;;;;;;;21.45;8.40;;;;;;;7.99;100.00;101141.69;4908658;29;20099;-79
2023/04/07 03:13:51;;;;;;;16.88;7.95;;;;;;;7.97;100.00;101126.41;4919602;29;20446;-79
2023/04/07 03:16:16;;;;;;;25.25;8.80;;;;;;;7.98;100.00;101131.75;4919792;29;20126;-79
2023/04/07 03:18:42;;;;;;;16.65;7.93;;;;;;;8.00;100.00;101135.28;4901534;29;20151;-79
2023/04/07 03:21:07;;;;;;;22.77;8.60;;;;;;;8.00;100.00;101142.56;4931777;29;20059;-78
2023/04/07 03:23:33;;;;;;;19.58;9.68;;;;;;;8.09;100.00;101140.13;4944993;29;20550;-79
2023/04/07 03:25:58;;;;;;;25.65;10.07;;;;;;;7.98;100.00;101139.94;4938456;29;20402;-79
2023/04/07 03:28:24;;;;;;;24.85;10.10;;;;;;;7.99;100.00;101149.88;4922303;29;20395;-79
2023/04/07 03:30:49;;;;;;;26.95;9.73;;;;;;;7.95;100.00;101148.31;4905647;29;20035;-79
2023/04/07 03:33:15;;;;;;;35.97;10.18;;;;;;;8.08;100.00;101142.94;4935506;29;20141;-79
2023/04/07 03:35:41;;;;;;;26.10;9.05;;;;;;;7.98;100.00;101142.66;4904345;29;20058;-79
2023/04/07 03:38:10;;;;;;;28.67;9.65;;;;;;;8.04;100.00;101133.22;4934135;29;20035;-79
2023/04/07 03:40:36;;;;;;;22.45;10.10;;;;;;;8.01;100.00;101137.00;4906598;29;20086;-80
2023/04/07 03:43:02;;;;;;;18.55;9.48;;;;;;;8.02;100.00;101137.91;4934300;29;20043;-79
2023/04/07 03:45:27;;;;;;;30.45;10.02;;;;;;;8.00;100.00;101135.28;4914939;29;20039;-79
2023/04/07 03:47:53;;;;;;;24.33;9.65;;;;;;;7.99;100.00;101146.28;4942911;29;20131;-79
2023/04/07 03:50:18;;;;;;;27.45;10.00;;;;;;;7.96;100.00;101143.75;4919802;29;20035;-78
2023/04/07 03:52:44;;;;;;;26.77;10.20;;;;;;;7.91;100.00;101139.44;4936501;29;20032;-79
2023/04/07 03:55:10;;;;;;;27.17;10.30;;;;;;;8.00;100.00;101153.47;4935717;29;20067;-80
2023/04/07 03:57:35;;;;;;;33.75;11.23;;;;;;;8.04;100.00;101146.88;4931580;29;20035;-79
2023/04/07 04:00:01;;;;;;;33.05;9.93;;;;;;;7.98;100.00;101139.94;4955049;29;20043;-79
2023/04/07 04:02:27;;;;;;;24.10;10.02;;;;;;;8.00;100.00;101145.28;4945436;29;20055;-79
2023/04/07 04:04:52;;;;;;;29.02;10.68;;;;;;;7.98;100.00;101149.97;4950478;29;20411;-79
2023/04/07 04:07:18;;;;;;;31.13;10.48;;;;;;;7.96;100.00;101143.75;4947958;28;20376;-79
2023/04/07 04:09:43;;;;;;;34.25;10.32;;;;;;;8.03;100.00;101137.78;4941747;29;20047;-79
2023/04/07 04:12:08;;;;;;;28.60;9.85;;;;;;;7.97;100.00;101130.03;4945242;29;20043;-79
2023/04/07 04:14:34;;;;;;;28.25;9.88;;;;;;;7.90;100.00;101145.00;4930704;29;20051;-79
2023/04/07 04:16:59;;;;;;;19.90;9.57;;;;;;;7.98;100.00;101144.53;4939153;29;20091;-78
2023/04/07 04:19:25;;;;;;;29.05;9.70;;;;;;;7.94;100.00;101142.97;4931720;29;20043;-79
2023/04/07 04:21:50;;;;;;;21.02;9.18;;;;;;;7.96;100.00;101144.63;4944508;29;20357;-79
2023/04/07 04:24:16;;;;;;;28.42;9.98;;;;;;;7.97;100.00;101157.28;4923688;29;20039;-79
2023/04/07 04:26:41;;;;;;;24.80;9.43;;;;;;;7.89;100.00;101154.16;4933266;29;20091;-80
2023/04/07 04:29:10;;;;;;;25.92;9.43;;;;;;;7.91;100.00;101153.09;4938003;29;20575;-79
2023/04/07 04:31:35;;;;;;;20.75;8.73;;;;;;;7.97;100.00;101159.13;4921208;29;20063;-79
2023/04/07 04:34:01;;;;;;;30.92;9.80;;;;;;;7.92;100.00;101153.97;4943412;29;20122;-80
2023/04/07 04:36:27;;;;;;;26.13;9.55;;;;;;;7.95;100.00;101161.06;4944147;29;20635;-78
2023/04/07 04:38:52;;;;;;;32.55;9.45;;;;;;;7.96;100.00;101162.84;4907276;29;20150;-78
2023/04/07 04:41:17;;;;;;;29.48;10.23;;;;;;;8.01;100.00;101166.13;4940386;29;20040;-78
2023/04/07 04:43:43;;;;;;;24.60;9.05;;;;;;;7.91;100.00;101165.84;4923716;29;20036;-80
2023/04/07 04:46:08;;;;;;;44.63;9.68;;;;;;;7.91;100.00;101163.13;4948764;29;20047;-80
2023/04/07 04:48:34;;;;;;;31.23;10.77;;;;;;;7.88;100.00;101164.19;4947411;29;20035;-79
2023/04/07 04:50:59;;;;;;;34.95;9.73;;;;;;;7.97;100.00;101167.28;4931041;29;20047;-80
2023/04/07 04:53:25;;;;;;;29.90;10.02;;;;;;;7.96;100.00;101171.88;4926929;29;20070;-79
2023/04/07 04:55:51;;;;;;;35.13;9.68;;;;;;;8.01;100.00;101169.72;4923577;29;20038;-78
2023/04/07 04:58:19;;;;;;;35.75;9.95;;;;;;;7.95;100.00;101185.59;4920946;29;20035;-80
2023/04/07 05:00:45;;;;;;;33.53;11.20;;;;;;;7.94;100.00;101184.75;4939374;29;20479;-80
2023/04/07 05:03:10;;;;;;;30.67;10.07;;;;;;;8.00;100.00;101191.66;4931484;29;20067;-80
2023/04/07 05:05:36;;;;;;;32.40;10.32;;;;;;;7.96;100.00;101193.69;4921598;29;20102;-80
2023/04/07 05:08:01;;;;;;;28.63;10.52;;;;;;;7.96;100.00;101199.16;4912102;29;20135;-78
2023/04/07 05:10:27;;;;;;;34.72;10.70;;;;;;;8.01;100.00;101199.72;4935904;29;20062;-78
2023/04/07 05:12:52;;;;;;;27.60;10.32;;;;;;;7.97;100.00;101189.09;4926197;29;20046;-78
2023/04/07 05:15:17;;;;;;;45.47;9.88;;;;;;;7.98;100.00;101186.28;4931236;29;20039;-78
2023/04/07 05:17:43;;;;;;;34.70;9.68;;;;;;;7.94;100.00;101201.09;4912526;29;20047;-78
2023/04/07 05:20:09;;;;;;;38.78;10.02;;;;;;;7.99;100.00;101196.22;4944216;29;20487;-78
2023/04/07 05:22:35;;;;;;;36.85;9.73;;;;;;;8.04;100.00;101194.09;4938875;29;20043;-77
2023/04/07 05:25:01;;;;;;;30.67;9.50;;;;;;;8.05;100.00;101194.94;4937235;29;20094;-78
2023/04/07 05:27:26;;;;;;;38.80;10.38;;;;;;;7.93;100.00;101198.47;4903179;29;20113;-77
2023/04/07 05:29:52;;;;;;;32.97;10.07;;;;;;;8.08;100.00;101201.13;4938033;29;20044;-78
2023/04/07 05:32:18;;;;;;;37.47;10.32;;;;;;;8.00;100.00;101208.00;4919385;29;20043;-78
2023/04/07 05:34:44;;;;;;;30.67;10.68;;;;;;;8.06;100.00;101207.63;4915325;29;20059;-79
2023/04/07 05:37:09;;;;;;;28.75;10.02;;;;;;;8.15;100.00;101219.78;4931591;29;20182;-79
2023/04/07 05:39:35;;;;;;;33.05;11.65;;;;;;;8.13;100.00;101203.53;4954081;29;20046;-79
2023/04/07 05:42:01;;;;;;;39.88;11.77;;;;;;;8.19;100.00;101216.78;4939177;29;20442;-79
2023/04/07 05:44:27;;;;;;;34.15;10.75;;;;;;;8.09;100.00;101213.75;4932107;29;20043;-79
2023/04/07 05:46:52;;;;;;;35.88;12.35;;;;;;;8.15;100.00;101209.78;4919953;29;20053;-79
2023/04/07 05:49:18;;;;;;;39.63;12.32;;;;;;;8.32;100.00;101216.00;4921717;29;20099;-80
2023/04/07 05:51:43;;;;;;;59.05;13.02;;;;;;;8.28;100.00;101223.53;4905014;29;20395;-79
2023/04/07 05:54:09;;;;;;;38.20;12.23;;;;;;;8.22;100.00;101222.03;4937113;29;20039;-79
2023/04/07 05:56:34;;;;;;;33.03;12.23;;;;;;;8.18;100.00;101228.69;4930341;29;20071;-79
2023/04/07 05:59:03;;;;;;;37.00;12.50;;;;;;;8.20;100.00;101221.28;4946458;29;20071;-80
2023/04/07 06:01:28;;;;;;;39.25;13.80;;;;;;;7.99;100.00;101219.91;4951096;29;20482;-80
2023/04/07 06:03:54;;;;;;;55.53;14.60;;;;;;;8.10;100.00;101229.16;4948167;29;20052;-79
2023/04/07 06:06:20;;;;;;;42.50;14.40;;;;;;;8.13;100.00;101229.94;4932147;29;20067;-78
2023/04/07 06:08:46;;;;;;;42.47;15.00;;;;;;;8.06;100.00;101224.00;4939272;29;20486;-79
2023/04/07 06:11:11;;;;;;;51.90;16.55;;;;;;;8.03;100.00;101224.19;4930751;29;20040;-78
2023/04/07 06:13:37;;;;;;;58.22;15.32;;;;;;;8.09;100.00;101234.72;4910897;29;20410;-79
2023/04/07 06:16:02;;;;;;;42.97;14.82;;;;;;;8.18;100.00;101245.06;4905389;29;20538;-79
2023/04/07 06:18:27;;;;;;;55.25;16.35;;;;;;;8.26;100.00;101236.38;4943656;29;20051;-80
2023/04/07 06:20:53;;;;;;;57.58;16.10;;;;;;;8.38;100.00;101246.50;4943560;29;20395;-79
2023/04/07 06:23:18;;;;;;;56.60;15.65;;;;;;;8.32;100.00;101248.75;4921436;29;20399;-78
2023/04/07 06:25:44;;;;;;;54.92;16.75;;;;;;;8.28;100.00;101248.06;4933281;29;20031;-79
2023/04/07 06:28:10;;;;;;;48.35;15.27;;;;;;;8.38;100.00;101251.06;4906864;29;20048;-79
2023/04/07 06:30:35;;;;;;;62.05;16.30;;;;;;;8.32;100.00;101251.47;4935839;29;20039;-79
2023/04/07 06:33:00;;;;;;;48.70;15.73;;;;;;;8.28;100.00;101254.41;4932622;29;20039;-79
2023/04/07 06:35:26;;;;;;;61.05;17.23;;;;;;;8.39;100.00;101255.56;4931048;29;20452;-79
2023/04/07 06:37:52;;;;;;;54.83;16.40;;;;;;;8.38;100.00;101248.34;4900102;29;20623;-80
2023/04/07 06:40:17;;;;;;;50.53;15.40;;;;;;;8.40;100.00;101257.31;4923512;29;20039;-79
2023/04/07 06:42:43;;;;;;;62.28;17.30;;;;;;;8.40;100.00;101257.31;4923824;29;20505;-79
2023/04/07 06:45:09;;;;;;;51.55;16.08;;;;;;;8.44;100.00;101259.81;4920622;29;20043;-78
2023/04/07 06:47:34;;;;;;;42.05;15.85;;;;;;;8.34;100.00;101260.44;4938182;29;20122;-79
2023/04/07 06:50:02;;;;;;;59.80;16.45;;;;;;;8.55;100.00;101270.00;4916494;29;20096;-79
2023/04/07 06:52:28;;;;;;;42.88;15.43;;;;;;;8.41;100.00;101267.25;4897309;29;20558;-78
2023/04/07 06:54:53;;;;;;;48.75;15.27;;;;;;;8.45;100.00;101264.25;4910975;29;20035;-80
2023/04/07 06:57:19;;;;;;;54.70;16.17;;;;;;;8.43;100.00;101268.94;4940887;29;20495;-79
2023/04/07 06:59:45;;;;;;;50.00;15.77;;;;;;;8.40;100.00;101274.56;4904114;29;20036;-79
2023/04/07 07:02:10;;;;;;;56.30;16.33;;;;;;;8.43;100.00;101274.41;4903843;29;20035;-78
2023/04/07 07:04:35;;;;;;;44.38;14.57;;;;;;;8.43;100.00;101273.53;4910380;29;20058;-79
2023/04/07 07:07:02;;;;;;;49.70;15.18;;;;;;;8.45;100.00;101277.03;4922806;29;20137;-78
2023/04/07 07:09:27;;;;;;;46.33;14.60;;;;;;;8.57;100.00;101286.28;4922861;29;20036;-78
2023/04/07 07:11:53;;;;;;;52.78;14.90;;;;;;;8.43;100.00;101285.31;4922489;29;20175;-78
2023/04/07 07:14:18;;;;;;;60.33;16.13;;;;;;;8.57;100.00;101280.84;4922382;29;20106;-79
2023/04/07 07:16:43;;;;;;;45.35;14.43;;;;;;;8.65;100.00;101292.13;4922322;29;20077;-79
2023/04/07 07:19:09;;;;;;;35.03;13.57;;;;;;;8.73;100.00;101283.47;4938208;29;20147;-78
2023/04/07 07:21:35;;;;;;;45.28;14.77;;;;;;;8.69;100.00;101284.63;4914417;29;20034;-79
2023/04/07 07:24:01;;;;;;;32.58;11.02;;;;;;;8.57;100.00;101289.03;4938099;29;20491;-79
2023/04/07 07:26:26;;;;;;;30.58;10.02;;;;;;;8.56;100.00;101290.88;4938420;29;20036;-79
2023/04/07 07:28:52;;;;;;;29.08;10.73;;;;;;;8.45;100.00;101287.97;4924459;29;20373;-79
2023/04/07 07:31:17;;;;;;;27.30;10.98;;;;;;;8.49;100.00;101296.81;4888596;29;20038;-79
2023/04/07 07:33:44;;;;;;;33.08;12.32;;;;;;;8.43;100.00;101301.69;4935006;29;20034;-79
2023/04/07 07:36:10;;;;;;;30.60;11.52;;;;;;;8.43;100.00;101298.97;4903788;29;20063;-79
2023/04/07 07:38:36;;;;;;;38.20;12.27;;;;;;;8.38;100.00;101301.06;4921355;29;20071;-79
2023/04/07 07:41:02;;;;;;;25.67;9.18;;;;;;;8.43;100.00;101300.81;4935773;29;20459;-79
2023/04/07 07:43:28;;;;;;;24.52;11.20;;;;;;;8.58;100.00;101304.44;4907664;29;20126;-80
2023/04/07 07:45:54;;;;;;;32.33;10.30;;;;;;;8.49;100.00;101310.47;4923473;29;20036;-80
2023/04/07 07:48:19;;;;;;;26.83;9.73;;;;;;;8.37;100.00;101310.22;4922840;29;20131;-80
2023/04/07 07:50:45;;;;;;;25.50;9.40;;;;;;;8.44;100.00;101321.66;4922758;29;20039;-80
2023/04/07 07:53:14;;;;;;;36.10;9.45;;;;;;;8.45;100.00;101321.56;4920013;29;20114;-81
2023/04/07 07:55:40;;;;;;;22.58;9.18;;;;;;;8.40;100.00;101317.34;4938772;29;20377;-80
2023/04/07 07:58:05;;;;;;;22.52;8.95;;;;;;;8.43;100.00;101319.94;4922265;29;20042;-80
2023/04/07 08:00:31;;;;;;;33.25;9.55;;;;;;;8.54;100.00;101325.56;4938559;29;20383;-80
2023/04/07 08:02:56;;;;;;;19.67;7.70;;;;;;;8.61;100.00;101321.50;4922592;29;20040;-80
2023/04/07 08:05:22;;;;;;;12.27;6.72;;;;;;;8.73;100.00;101322.56;4938776;29;20127;-80
2023/04/07 08:07:49;;;;;;;19.88;7.32;;;;;;;8.92;100.00;101327.72;4938875;29;20419;-80
2023/04/07 08:10:15;;;;;;;19.10;7.20;;;;;;;9.14;100.00;101329.06;4923455;29;20043;-80
2023/04/07 08:12:40;;;;;;;16.60;8.48;;;;;;;9.19;100.00;101330.47;4910229;29;20028;-81
2023/04/07 08:15:08;;;;;;;20.00;7.97;;;;;;;9.20;100.00;101332.25;4930956;29;20043;-80
2023/04/07 08:17:35;;;;;;;14.70;7.75;;;;;;;9.28;100.00;101331.75;4940205;29;20220;-80
2023/04/07 08:20:04;;;;;;;16.13;7.50;;;;;;;9.12;100.00;101340.06;4939829;29;20028;-80
2023/04/07 08:22:30;;;;;;;16.00;7.30;;;;;;;9.22;100.00;101339.47;4892477;29;20145;-81
2023/04/07 08:24:55;;;;;;;16.55;7.53;;;;;;;9.14;100.00;101334.50;4940021;29;20130;-80
2023/04/07 08:27:21;;;;;;;16.58;7.55;;;;;;;9.17;100.00;101335.19;4881306;29;20027;-79
2023/04/07 08:30:06;;;;;;;12.88;6.63;;;;;;;9.17;100.00;101337.03;4907867;29;20043;-79
2023/04/07 08:32:42;;;;;;;16.58;6.82;;;;;;;9.17;100.00;101342.50;4912820;29;20170;-80
2023/04/07 08:35:08;;;;;;;18.58;7.30;;;;;;;9.22;100.00;101350.41;4952201;29;20035;-80
2023/04/07 08:37:34;;;;;;;15.88;6.88;;;;;;;9.27;100.00;101343.66;4949930;29;20035;-80
2023/04/07 08:40:01;;;;;;;13.43;7.30;;;;;;;9.42;100.00;101343.63;4941982;29;20035;-80
2023/04/07 08:42:29;;;;;;;16.58;6.75;;;;;;;9.42;100.00;101351.81;4937497;29;20502;-80
2023/04/07 08:45:05;;;;;;;18.10;7.35;;;;;;;9.52;100.00;101361.16;4957770;29;20035;-80
2023/04/07 08:47:33;;;;;;;19.88;7.25;;;;;;;9.27;100.00;101359.19;4942380;29;20034;-80
2023/04/07 08:50:05;;;;;;;14.77;6.65;;;;;;;9.32;100.00;101360.63;4959268;29;20091;-80
2023/04/07 08:52:43;;;;;;;18.15;7.75;;;;;;;9.30;100.00;101346.19;4958251;28;20035;-80
2023/04/07 08:55:09;;;;;;;20.63;9.60;;;;;;;9.57;100.00;101359.88;4941461;29;20162;-80
2023/04/07 08:57:35;;;;;;;15.95;8.90;;;;;;;9.66;100.00;101366.59;4925361;29;20041;-79
2023/04/07 09:00:04;;;;;;;20.10;8.80;;;;;;;9.67;100.00;101370.19;4955783;28;20050;-80
2023/04/07 09:02:35;;;;;;;26.20;10.15;;;;;;;9.81;100.00;101377.47;4938194;29;20040;-80
2023/04/07 09:05:04;;;;;;;21.13;9.50;;;;;;;9.75;100.00;101371.41;4922148;29;20044;-80
2023/04/07 09:07:32;;;;;;;22.13;8.13;;;;;;;9.84;100.00;101377.25;4906600;29;20067;-81
2023/04/07 09:09:57;;;;;;;19.98;8.45;;;;;;;9.89;100.00;101375.97;4906329;29;20102;-80
2023/04/07 09:12:23;;;;;;;20.38;9.02;;;;;;;9.74;100.00;101382.47;4922351;29;20047;-80
2023/04/07 09:14:48;;;;;;;18.65;7.80;;;;;;;9.59;100.00;101381.63;4910132;29;20046;-79
2023/04/07 09:17:14;;;;;;;22.00;10.80;;;;;;;9.68;100.00;101381.03;4948181;29;20051;-80
2023/04/07 09:19:39;;;;;;;21.33;9.07;;;;;;;9.75;100.00;101374.16;4922106;29;20483;-79
2023/04/07 09:22:05;;;;;;;18.10;8.85;;;;;;;9.91;100.00;101389.53;4938552;29;20102;-80
2023/04/07 09:24:30;;;;;;;14.80;8.27;;;;;;;10.02;100.00;101389.69;4922168;29;20063;-80
2023/04/07 09:27:14;;;;;;;18.30;7.57;;;;;;;9.94;100.00;101392.06;4922583;29;20456;-80
2023/04/07 09:29:41;;;;;;;17.40;7.18;;;;;;;9.90;100.00;101394.16;4922096;29;20086;-80
2023/04/07 09:32:08;;;;;;;14.43;6.50;;;;;;;9.80;100.00;101382.03;4938874;29;20542;-80
2023/04/07 09:34:37;;;;;;;20.00;7.35;;;;;;;9.75;100.00;101381.47;4922118;29;20040;-80
2023/04/07 09:37:04;;;;;;;11.77;5.85;;;;;;;9.61;100.00;101362.38;4931165;29;20035;-80
2023/04/07 09:39:30;;;;;;;13.23;6.28;;;;;;;9.75;100.00;101393.28;4939659;29;20111;-80
2023/04/07 09:41:56;;;;;;;18.02;6.80;;;;;;;9.65;100.00;101386.69;4916576;29;20039;-80
2023/04/07 09:44:24;;;;;;;13.93;6.13;;;;;;;9.84;100.00;101379.97;4940644;29;20126;-80
2023/04/07 09:46:55;;;;;;;19.13;6.88;;;;;;;9.66;100.00;101382.13;4924726;29;20513;-80
2023/04/07 09:49:21;;;;;;;13.68;5.88;;;;;;;9.55;100.00;101389.16;4923941;29;20089;-80
2023/04/07 09:51:58;;;;;;;15.43;5.85;;;;;;;9.52;100.00;101385.75;4939896;29;20039;-80
2023/04/07 09:54:38;;;;;;;21.65;7.47;;;;;;;9.57;100.00;101389.06;4936756;29;20482;-80
2023/04/07 09:57:09;;;;;;;20.35;6.32;;;;;;;9.67;100.00;101390.19;4943517;29;20043;-79
2023/04/07 09:59:37;;;;;;;12.23;5.38;;;;;;;9.61;100.00;101393.34;4956563;29;20487;-81
2023/04/07 10:02:03;;;;;;;19.50;5.53;;;;;;;9.77;100.00;101395.91;4952353;29;20035;-80
2023/04/07 10:04:29;;;;;;;14.05;6.05;;;;;;;9.89;100.00;101386.03;4938704;29;20066;-80
2023/04/07 10:06:56;;;;;;;11.52;5.95;;;;;;;10.08;100.00;101397.47;4935002;29;20039;-80
2023/04/07 10:09:24;;;;;;;21.27;6.68;;;;;;;10.39;100.00;101399.97;4948888;29;20043;-80
2023/04/07 10:11:51;;;;;;;12.77;5.90;;;;;;;10.43;100.00;101401.53;4951183;29;20028;-80
2023/04/07 10:14:18;;;;;;;18.00;6.97;;;;;;;10.56;100.00;101393.31;4922332;29;20387;-80
2023/04/07 10:16:45;;;;;;;14.00;5.80;;;;;;;10.47;100.00;101400.31;4938073;29;20448;-81
2023/04/07 10:19:12;;;;;;;12.20;5.88;;;;;;;10.29;100.00;101405.19;4938088;29;20031;-81
2023/04/07 10:21:41;;;;;;;12.05;5.00;;;;;;;10.22;100.00;101399.25;4938943;29;20050;-80
2023/04/07 10:24:19;;;;;;;11.40;4.80;;;;;;;10.03;100.00;101412.44;4950077;29;20478;-80
2023/04/07 10:26:50;;;;;;;22.10;5.68;;;;;;;10.20;100.00;101408.53;4939872;29;20494;-79
2023/04/07 10:29:18;;;;;;;11.18;5.18;;;;;;;10.10;100.00;101400.09;4922019;29;20031;-80
2023/04/07 10:31:45;;;;;;;11.63;5.50;;;;;;;10.13;100.00;101410.81;4921736;29;20077;-80
2023/04/07 10:34:11;;;;;;;14.75;5.30;;;;;;;10.08;100.00;101413.91;4917227;29;20036;-80
2023/04/07 10:37:12;;;;;;;17.83;5.32;;;;;;;10.28;100.00;101415.25;4937526;29;20051;-81
2023/04/07 10:39:38;;;;;;;17.75;5.43;;;;;;;10.38;100.00;101410.06;4906110;29;20032;-80
2023/04/07 10:42:03;;;;;;;13.95;4.75;;;;;;;10.39;100.00;101421.88;4939265;29;20078;-80
2023/04/07 10:44:38;;;;;;;9.27;4.55;;;;;;;10.26;100.00;101421.81;4930657;29;20042;-81
2023/04/07 10:47:05;;;;;;;7.18;4.40;;;;;;;10.17;100.00;101417.84;4942989;29;20051;-81
2023/04/07 10:49:32;;;;;;;17.02;4.25;;;;;;;10.07;100.00;101422.22;4940988;29;20059;-81
2023/04/07 10:52:10;;;;;;;15.27;4.22;;;;;;;10.07;100.00;101425.81;4922994;29;20032;-81
2023/04/07 10:54:36;;;;;;;12.13;4.22;;;;;;;10.16;100.00;101415.22;4939325;29;20130;-81
2023/04/07 10:57:01;;;;;;;12.52;4.43;;;;;;;10.22;100.00;101433.97;4921623;29;20063;-81
2023/04/07 10:59:28;;;;;;;15.65;4.20;;;;;;;10.10;100.00;101428.34;4922481;29;20050;-82
2023/04/07 11:02:16;;;;;;;9.40;3.72;;;;;;;9.95;100.00;101434.84;4932923;29;20066;-81
2023/04/07 11:04:44;;;;;;;14.25;3.53;;;;;;;10.08;100.00;101435.78;4958194;28;20103;-81
2023/04/07 11:07:12;;;;;;;25.30;5.30;;;;;;;10.16;100.00;101439.84;4938059;29;20058;-81
2023/04/07 11:09:37;;;;;;;15.00;4.85;;;;;;;10.16;100.00;101434.38;4936289;29;20106;-81
2023/04/07 11:12:03;;;;;;;13.20;4.55;;;;;;;10.12;100.00;101442.78;4916891;29;20432;-80